Airfield :
LOGIN :

Register | Disclaimer

   EN    FR    IT 

 










Legend :    VFR   Marginal VFR   IFR   Intensive IFR   Very Intensive IFR
Visi :
Ceiling :
>= 8 km
>= 3000ft
5 to 8 km
1000 to 3000 ft
1500m to 5 km
500 to 1000 ft
800 to 1500m
200 to 500 ft
< 800m
< 200 ft
Symbols :   Thunderstorms  Fog  Heavy snow  Heavy precipitations  Wind > 20 kt
SIGMETs :     Misc.  Thunderstorms  Icing  Turbulence  Mountain Waves  Volcanic Ashes






- Airport Elevation : 256 ft
- IATA code : CFR


LFRK - Caen

CURRENT METAR :
  • 220130Z AUTO 02008KT 350V050 9999 OVC006/// ///TCU 15/14 Q1012

EXPIRED METARs :
  • 220100Z AUTO 01007KT 340V050 9999 -RA OVC006/// ///TCU 15/14 Q1012
  • 220030Z AUTO 02006KT 350V050 9999 -RA OVC006/// ///TCU 15/14 Q1012
  • 220000Z AUTO 02006KT 360V060 9000 OVC004/// ///TCU 15/14 Q1012
  • 212330Z AUTO 02007KT 350V060 5000 BR OVC005 15/14 Q1012
  • 212300Z AUTO 02007KT 300V050 6000 OVC004 15/14 Q1012

Expired Forecast.
Met : +33 2 31 26 68 11



MET'MAP, your aeronautical weather chart ! - Copyright ORBIFLY December 2007 - Disclaimer

ORBIFLY MET'MAP TEAM :

Programming & Development : Alexandra Zaïnal
Concept & original design : Baudouin d'Aumeries
Assistance for programming : Marc-Olivier Méhu
Technical & hardware support : Manuel Goepfert

Contact : metmap@orbifly.com




SOURCES & CREDITS :

   NOAA